createdAt,value
2022-09-03T00:02:34.634Z,46.19
2022-09-03T00:10:44.146Z,46.44
2022-09-03T00:15:45.129Z,46.56
2022-09-03T00:20:57.934Z,46.66
2022-09-03T00:26:26.789Z,46.60
2022-09-03T00:31:36.009Z,46.90
2022-09-03T00:36:45.209Z,46.82
2022-09-03T00:45:13.722Z,46.88
2022-09-03T00:50:36.131Z,47.09
2022-09-03T01:00:44.483Z,47.37
2022-09-03T01:06:17.770Z,47.71
2022-09-03T01:12:01.849Z,48.55
2022-09-03T01:18:59.958Z,49.54
2022-09-03T01:24:40.722Z,49.44
2022-09-03T01:30:00.048Z,49.77
2022-09-03T01:35:15.077Z,49.71
2022-09-03T01:40:35.227Z,50.15
2022-09-03T01:46:32.368Z,49.78
2022-09-03T01:51:34.458Z,49.29
2022-09-03T01:58:38.347Z,48.75
2022-09-03T02:03:42.173Z,49.30
2022-09-03T02:08:43.083Z,50.14
2022-09-03T02:13:48.859Z,50.65
2022-09-03T02:18:54.199Z,50.85
2022-09-03T02:23:55.268Z,50.85
2022-09-03T02:28:57.212Z,50.30
2022-09-03T02:33:58.128Z,49.82
2022-09-03T02:38:59.890Z,49.53
2022-09-03T02:44:36.264Z,49.88
2022-09-03T02:49:38.932Z,49.97
2022-09-03T02:54:40.179Z,50.30
2022-09-03T02:59:43.800Z,50.47
2022-09-03T03:04:44.702Z,50.46
2022-09-03T03:09:45.560Z,50.53
2022-09-03T03:14:46.447Z,50.52
2022-09-03T03:19:48.448Z,50.69
2022-09-03T03:24:49.745Z,51.06
2022-09-03T03:29:51.402Z,51.06
2022-09-03T03:34:52.246Z,51.35
2022-09-03T03:39:53.732Z,51.78
2022-09-03T03:44:55.004Z,51.71
2022-09-03T03:49:57.555Z,51.82
2022-09-03T03:54:58.469Z,51.89
2022-09-03T03:59:59.657Z,52.35
2022-09-03T04:05:01.039Z,52.35
2022-09-03T04:10:01.893Z,52.49
2022-09-03T04:15:03.290Z,52.61
2022-09-03T04:20:05.211Z,52.39
2022-09-03T04:25:06.523Z,52.45
2022-09-03T04:30:08.108Z,53.16
2022-09-03T04:35:09.198Z,53.24
2022-09-03T04:40:10.550Z,53.29
2022-09-03T04:45:15.040Z,53.33
2022-09-03T04:50:16.246Z,53.77
2022-09-03T04:55:18.752Z,54.34
2022-09-03T05:00:19.668Z,54.56
2022-09-03T05:05:20.552Z,54.88
2022-09-03T05:10:21.919Z,55.40
2022-09-03T05:15:22.780Z,56.39
2022-09-03T05:20:24.562Z,57.93
2022-09-03T05:25:25.383Z,60.57
2022-09-03T05:30:26.731Z,63.28
2022-09-03T05:35:30.158Z,64.33
2022-09-03T05:40:33.444Z,70.82
2022-09-03T05:45:34.294Z,72.00
2022-09-03T05:50:36.415Z,72.25
2022-09-03T05:55:37.208Z,74.35
2022-09-03T06:00:38.652Z,74.35
2022-09-03T06:05:39.464Z,73.33
2022-09-03T06:10:41.113Z,72.12
2022-09-03T06:15:42.101Z,74.41
2022-09-03T06:20:43.031Z,74.83
2022-09-03T06:25:43.814Z,73.39
2022-09-03T06:30:44.662Z,72.67
2022-09-03T06:35:46.213Z,71.74
2022-09-03T06:41:01.822Z,70.16
2022-09-03T06:46:06.098Z,69.88
2022-09-03T06:51:14.700Z,71.27
2022-09-03T06:56:18.524Z,70.13
2022-09-03T07:01:21.879Z,69.25
2022-09-03T07:06:25.015Z,71.38
2022-09-03T07:11:28.656Z,71.73
2022-09-03T07:16:36.751Z,74.42
2022-09-03T07:21:46.524Z,76.51
2022-09-03T07:26:50.060Z,78.99
2022-09-03T07:31:51.160Z,80.75
2022-09-03T07:36:53.283Z,80.36
2022-09-03T07:41:54.504Z,80.16
2022-09-03T07:46:55.895Z,81.03
2022-09-03T07:51:56.934Z,79.17
2022-09-03T07:56:58.445Z,76.90
2022-09-03T08:01:59.390Z,77.00
2022-09-03T08:07:00.236Z,76.14
2022-09-03T08:12:01.674Z,74.64
2022-09-03T08:17:02.663Z,75.80
2022-09-03T08:22:03.724Z,76.39
2022-09-03T08:27:04.658Z,74.94
2022-09-03T08:32:05.722Z,75.77
2022-09-03T08:37:09.142Z,75.54
2022-09-03T08:42:47.081Z,77.69
2022-09-03T08:47:56.195Z,80.01
2022-09-03T08:54:31.820Z,80.80
2022-09-03T08:59:33.216Z,80.53
2022-09-03T09:05:13.995Z,79.96
2022-09-03T09:10:47.212Z,81.31
2022-09-03T09:17:05.905Z,80.94
2022-09-03T09:22:40.390Z,81.01
2022-09-03T09:27:50.957Z,81.31
2022-09-03T09:32:52.259Z,80.35
2022-09-03T09:37:56.351Z,81.77
2022-09-03T09:43:30.428Z,80.75
2022-09-03T09:48:38.225Z,83.69
2022-09-03T09:53:40.545Z,85.39
2022-09-03T09:58:41.629Z,85.54
2022-09-03T10:03:57.273Z,88.47
2022-09-03T10:09:16.575Z,88.07
2022-09-03T10:14:34.544Z,88.43
2022-09-03T10:21:04.174Z,88.30
2022-09-03T10:26:16.069Z,85.57
2022-09-03T10:33:07.487Z,82.41
2022-09-03T10:40:56.227Z,81.62
2022-09-03T10:46:07.945Z,79.25
2022-09-03T10:51:27.443Z,80.14
2022-09-03T10:56:58.872Z,81.79
2022-09-03T11:04:09.969Z,79.68
2022-09-03T11:10:10.849Z,78.25
2022-09-03T11:15:27.964Z,75.38
2022-09-03T11:20:31.390Z,75.67
2022-09-03T11:25:36.437Z,77.79
2022-09-03T11:32:15.108Z,79.89
2022-09-03T11:37:27.752Z,74.36
2022-09-03T11:42:42.756Z,68.66
2022-09-03T11:47:44.826Z,70.31
2022-09-03T11:52:47.775Z,69.24
2022-09-03T11:57:48.695Z,69.51
2022-09-03T12:03:02.640Z,73.00
2022-09-03T12:10:37.514Z,77.52
2022-09-03T12:18:52.302Z,77.17
2022-09-03T12:23:58.008Z,77.86
2022-09-03T12:29:00.278Z,77.17
2022-09-03T12:34:09.429Z,75.84
2022-09-03T12:39:13.444Z,77.13
2022-09-03T12:44:14.485Z,77.98
2022-09-03T12:49:30.920Z,75.21
2022-09-03T12:54:34.214Z,76.40
2022-09-03T12:59:37.778Z,78.42
2022-09-03T13:04:39.883Z,79.82
2022-09-03T13:09:42.022Z,79.58
2022-09-03T13:14:46.424Z,78.29
2022-09-03T13:20:24.160Z,76.95
2022-09-03T13:30:48.036Z,71.96
2022-09-03T13:36:28.636Z,71.06
2022-09-03T13:41:49.445Z,67.65
2022-09-03T13:47:25.490Z,70.03
2022-09-03T13:53:04.208Z,71.82
2022-09-03T13:58:21.338Z,70.90
2022-09-03T14:03:48.106Z,70.30
2022-09-03T14:11:08.903Z,71.37
2022-09-03T14:17:41.128Z,74.38
2022-09-03T14:23:25.366Z,77.14
2022-09-03T14:28:59.013Z,76.77
2022-09-03T14:34:24.137Z,77.78
2022-09-03T14:39:51.725Z,77.35
2022-09-03T14:45:15.796Z,76.22
2022-09-03T14:50:42.356Z,76.95
2022-09-03T14:56:12.081Z,76.84
2022-09-03T15:01:28.964Z,77.08
2022-09-03T15:07:30.183Z,78.80
2022-09-03T15:12:38.362Z,78.01
2022-09-03T15:23:48.521Z,78.03
2022-09-03T15:30:17.594Z,79.84
2022-09-03T15:36:53.624Z,81.41
2022-09-03T15:42:28.450Z,76.59
2022-09-03T15:47:53.196Z,94.81
2022-09-03T15:53:35.976Z,100.00
2022-09-03T15:59:18.857Z,100.00
2022-09-03T16:04:56.965Z,100.00
2022-09-03T16:12:35.527Z,100.00
2022-09-03T16:19:39.174Z,100.00
2022-09-03T16:24:53.145Z,100.00
2022-09-03T16:30:01.634Z,100.00
2022-09-03T16:35:23.347Z,100.00
2022-09-03T16:40:52.202Z,100.00
2022-09-03T16:46:12.637Z,100.00
2022-09-03T16:51:34.317Z,100.00
2022-09-03T16:56:49.528Z,100.00
2022-09-03T17:06:12.084Z,100.00
2022-09-03T17:14:01.552Z,100.00
2022-09-03T17:20:47.247Z,100.00
2022-09-03T17:26:42.411Z,100.00
2022-09-03T17:33:36.943Z,100.00
2022-09-03T17:39:44.722Z,100.00
2022-09-03T17:44:59.990Z,100.00
2022-09-03T17:50:24.155Z,100.00
2022-09-03T17:55:36.966Z,100.00
2022-09-03T18:01:28.312Z,100.00
2022-09-03T18:06:51.757Z,100.00
2022-09-03T18:16:43.387Z,100.00
2022-09-03T18:22:06.717Z,100.00
2022-09-03T18:27:36.285Z,100.00
2022-09-03T18:32:56.129Z,100.00
2022-09-03T18:38:15.958Z,100.00
2022-09-03T18:44:02.354Z,100.00
2022-09-03T18:49:48.101Z,100.00
2022-09-03T18:58:50.814Z,100.00
2022-09-03T19:07:18.678Z,100.00
2022-09-03T19:14:25.443Z,100.00
2022-09-03T19:22:03.745Z,100.00
2022-09-03T19:29:16.897Z,100.00
2022-09-03T19:36:15.635Z,100.00
2022-09-03T19:42:05.971Z,100.00
2022-09-03T19:47:27.497Z,100.00
2022-09-03T19:53:33.250Z,100.00
2022-09-03T19:58:55.993Z,100.00
2022-09-03T20:04:22.214Z,100.00
2022-09-03T20:09:47.688Z,100.00
2022-09-03T20:14:48.805Z,100.00
2022-09-03T20:20:13.786Z,100.00
2022-09-03T20:25:44.204Z,100.00
2022-09-03T20:31:47.524Z,100.00
2022-09-03T20:39:44.556Z,100.00
2022-09-03T20:44:53.742Z,100.00
2022-09-03T20:51:22.023Z,100.00
2022-09-03T20:56:36.815Z,100.00
2022-09-03T21:01:51.489Z,100.00
2022-09-03T21:10:06.779Z,100.00
2022-09-03T21:15:12.850Z,100.00
2022-09-03T21:20:36.340Z,100.00
2022-09-03T21:26:14.483Z,100.00
2022-09-03T21:31:23.064Z,100.00
2022-09-03T21:36:29.618Z,100.00
2022-09-03T21:41:43.547Z,100.00
2022-09-03T21:46:58.043Z,100.00
2022-09-03T21:52:11.318Z,100.00
2022-09-03T21:58:01.575Z,100.00
2022-09-03T22:03:05.728Z,100.00
2022-09-03T22:08:44.750Z,100.00
2022-09-03T22:14:02.058Z,100.00
2022-09-03T22:19:08.186Z,100.00
2022-09-03T22:24:32.539Z,100.00
2022-09-03T22:29:45.995Z,100.00
2022-09-03T22:35:22.723Z,100.00
2022-09-03T22:45:48.592Z,100.00
2022-09-03T22:50:58.118Z,100.00
2022-09-03T22:56:14.256Z,100.00
2022-09-03T23:01:24.598Z,100.00
2022-09-03T23:06:33.346Z,100.00
2022-09-03T23:11:52.471Z,100.00
2022-09-03T23:16:59.657Z,100.00
2022-09-03T23:22:04.775Z,100.00
2022-09-03T23:27:13.332Z,100.00
2022-09-03T23:32:14.418Z,100.00
2022-09-03T23:40:23.302Z,100.00
2022-09-03T23:46:33.817Z,100.00
2022-09-03T23:54:24.847Z,100.00
